sensor_id;sensor_type;location;lat;lon;timestamp;P1;durP1;ratioP1;P2;durP2;ratioP2
16272;SDS011;8244;50.044;9.006;2022-07-29T00:04:32;8.48;;;2.10;;
16272;SDS011;8244;50.044;9.006;2022-07-29T00:09:35;4.40;;;2.20;;
16272;SDS011;8244;50.044;9.006;2022-07-29T00:14:37;5.88;;;2.20;;
16272;SDS011;8244;50.044;9.006;2022-07-29T00:19:40;4.15;;;2.00;;
16272;SDS011;8244;50.044;9.006;2022-07-29T00:24:41;3.35;;;2.08;;
16272;SDS011;8244;50.044;9.006;2022-07-29T00:29:43;5.82;;;2.10;;
16272;SDS011;8244;50.044;9.006;2022-07-29T00:34:47;6.03;;;2.75;;
16272;SDS011;8244;50.044;9.006;2022-07-29T00:40:20;4.80;;;2.40;;
16272;SDS011;8244;50.044;9.006;2022-07-29T00:45:23;3.83;;;2.30;;
16272;SDS011;8244;50.044;9.006;2022-07-29T00:50:26;5.53;;;2.28;;
16272;SDS011;8244;50.044;9.006;2022-07-29T00:55:28;4.07;;;2.20;;
16272;SDS011;8244;50.044;9.006;2022-07-29T01:00:30;5.38;;;2.10;;
16272;SDS011;8244;50.044;9.006;2022-07-29T01:05:33;5.53;;;2.30;;
16272;SDS011;8244;50.044;9.006;2022-07-29T01:10:36;7.70;;;2.15;;
16272;SDS011;8244;50.044;9.006;2022-07-29T01:15:41;6.40;;;2.15;;
16272;SDS011;8244;50.044;9.006;2022-07-29T01:20:58;6.88;;;2.35;;
16272;SDS011;8244;50.044;9.006;2022-07-29T01:26:31;4.30;;;2.20;;
16272;SDS011;8244;50.044;9.006;2022-07-29T01:31:42;6.40;;;2.38;;
16272;SDS011;8244;50.044;9.006;2022-07-29T01:36:48;5.40;;;2.33;;
16272;SDS011;8244;50.044;9.006;2022-07-29T01:41:57;9.15;;;2.55;;
16272;SDS011;8244;50.044;9.006;2022-07-29T01:47:07;5.10;;;2.33;;
16272;SDS011;8244;50.044;9.006;2022-07-29T01:52:13;4.75;;;2.20;;
16272;SDS011;8244;50.044;9.006;2022-07-29T01:57:21;7.53;;;1.95;;
16272;SDS011;8244;50.044;9.006;2022-07-29T02:02:29;5.22;;;2.47;;
16272;SDS011;8244;50.044;9.006;2022-07-29T02:07:32;5.27;;;2.40;;
16272;SDS011;8244;50.044;9.006;2022-07-29T02:12:35;6.50;;;2.50;;
16272;SDS011;8244;50.044;9.006;2022-07-29T02:17:40;6.32;;;2.30;;
16272;SDS011;8244;50.044;9.006;2022-07-29T02:22:45;7.20;;;2.45;;
16272;SDS011;8244;50.044;9.006;2022-07-29T02:27:50;6.35;;;2.58;;
16272;SDS011;8244;50.044;9.006;2022-07-29T02:32:53;6.95;;;2.55;;
16272;SDS011;8244;50.044;9.006;2022-07-29T02:37:56;6.20;;;2.45;;
16272;SDS011;8244;50.044;9.006;2022-07-29T02:43:16;6.95;;;2.65;;
16272;SDS011;8244;50.044;9.006;2022-07-29T02:48:22;7.47;;;2.85;;
16272;SDS011;8244;50.044;9.006;2022-07-29T02:53:29;4.90;;;2.30;;
16272;SDS011;8244;50.044;9.006;2022-07-29T02:58:37;6.13;;;2.50;;
16272;SDS011;8244;50.044;9.006;2022-07-29T03:03:43;5.88;;;2.50;;
16272;SDS011;8244;50.044;9.006;2022-07-29T03:08:47;6.93;;;2.70;;
16272;SDS011;8244;50.044;9.006;2022-07-29T03:13:49;6.78;;;2.42;;
16272;SDS011;8244;50.044;9.006;2022-07-29T03:18:53;5.82;;;2.92;;
16272;SDS011;8244;50.044;9.006;2022-07-29T03:23:55;5.80;;;2.40;;
16272;SDS011;8244;50.044;9.006;2022-07-29T03:28:57;6.70;;;2.70;;
16272;SDS011;8244;50.044;9.006;2022-07-29T03:34:00;6.88;;;2.55;;
16272;SDS011;8244;50.044;9.006;2022-07-29T03:39:02;4.90;;;2.60;;
16272;SDS011;8244;50.044;9.006;2022-07-29T03:44:06;5.35;;;2.33;;
16272;SDS011;8244;50.044;9.006;2022-07-29T03:49:10;7.63;;;3.08;;
16272;SDS011;8244;50.044;9.006;2022-07-29T03:54:15;9.73;;;3.10;;
16272;SDS011;8244;50.044;9.006;2022-07-29T03:59:17;7.82;;;2.42;;
16272;SDS011;8244;50.044;9.006;2022-07-29T04:04:22;6.45;;;2.30;;
16272;SDS011;8244;50.044;9.006;2022-07-29T04:09:23;8.10;;;2.72;;
16272;SDS011;8244;50.044;9.006;2022-07-29T04:14:25;6.88;;;2.50;;
16272;SDS011;8244;50.044;9.006;2022-07-29T04:19:28;4.53;;;2.50;;
16272;SDS011;8244;50.044;9.006;2022-07-29T04:24:31;5.70;;;2.65;;
16272;SDS011;8244;50.044;9.006;2022-07-29T04:29:32;5.22;;;2.40;;
16272;SDS011;8244;50.044;9.006;2022-07-29T04:34:35;7.88;;;2.40;;
16272;SDS011;8244;50.044;9.006;2022-07-29T04:39:37;7.82;;;2.70;;
16272;SDS011;8244;50.044;9.006;2022-07-29T04:44:39;7.60;;;2.75;;
16272;SDS011;8244;50.044;9.006;2022-07-29T04:49:42;5.70;;;2.95;;
16272;SDS011;8244;50.044;9.006;2022-07-29T04:54:44;6.20;;;2.78;;
16272;SDS011;8244;50.044;9.006;2022-07-29T04:59:45;8.13;;;3.47;;
16272;SDS011;8244;50.044;9.006;2022-07-29T05:04:48;6.00;;;2.42;;
16272;SDS011;8244;50.044;9.006;2022-07-29T05:09:50;7.15;;;2.42;;
16272;SDS011;8244;50.044;9.006;2022-07-29T05:14:53;6.80;;;2.30;;
16272;SDS011;8244;50.044;9.006;2022-07-29T05:19:56;4.47;;;2.45;;
16272;SDS011;8244;50.044;9.006;2022-07-29T05:24:57;5.10;;;2.40;;
16272;SDS011;8244;50.044;9.006;2022-07-29T05:29:59;8.48;;;2.72;;
16272;SDS011;8244;50.044;9.006;2022-07-29T05:35:03;7.20;;;2.55;;
16272;SDS011;8244;50.044;9.006;2022-07-29T05:40:05;9.65;;;2.90;;
16272;SDS011;8244;50.044;9.006;2022-07-29T05:45:08;10.85;;;2.50;;
16272;SDS011;8244;50.044;9.006;2022-07-29T05:50:12;7.90;;;2.45;;
16272;SDS011;8244;50.044;9.006;2022-07-29T05:55:14;6.82;;;2.55;;
16272;SDS011;8244;50.044;9.006;2022-07-29T06:00:16;6.10;;;2.45;;
16272;SDS011;8244;50.044;9.006;2022-07-29T06:05:19;8.23;;;2.40;;
16272;SDS011;8244;50.044;9.006;2022-07-29T06:10:21;5.55;;;2.38;;
16272;SDS011;8244;50.044;9.006;2022-07-29T06:15:24;7.68;;;2.53;;
16272;SDS011;8244;50.044;9.006;2022-07-29T06:20:27;7.07;;;2.50;;
16272;SDS011;8244;50.044;9.006;2022-07-29T06:25:30;6.55;;;2.38;;
16272;SDS011;8244;50.044;9.006;2022-07-29T06:30:34;6.60;;;2.47;;
16272;SDS011;8244;50.044;9.006;2022-07-29T06:35:37;7.80;;;2.60;;
16272;SDS011;8244;50.044;9.006;2022-07-29T06:40:41;10.27;;;2.80;;
16272;SDS011;8244;50.044;9.006;2022-07-29T06:46:01;5.95;;;2.58;;
16272;SDS011;8244;50.044;9.006;2022-07-29T06:51:05;5.88;;;2.30;;
16272;SDS011;8244;50.044;9.006;2022-07-29T06:56:07;6.07;;;2.35;;
16272;SDS011;8244;50.044;9.006;2022-07-29T07:01:09;5.88;;;2.20;;
16272;SDS011;8244;50.044;9.006;2022-07-29T07:06:12;9.13;;;2.67;;
16272;SDS011;8244;50.044;9.006;2022-07-29T07:11:14;7.55;;;2.20;;
16272;SDS011;8244;50.044;9.006;2022-07-29T07:16:16;7.63;;;2.35;;
16272;SDS011;8244;50.044;9.006;2022-07-29T07:21:19;8.82;;;2.35;;
16272;SDS011;8244;50.044;9.006;2022-07-29T07:26:21;6.40;;;2.20;;
16272;SDS011;8244;50.044;9.006;2022-07-29T07:31:22;6.70;;;2.40;;
16272;SDS011;8244;50.044;9.006;2022-07-29T07:36:25;6.25;;;2.20;;
16272;SDS011;8244;50.044;9.006;2022-07-29T07:41:27;5.65;;;2.47;;
16272;SDS011;8244;50.044;9.006;2022-07-29T07:46:29;7.15;;;2.10;;
16272;SDS011;8244;50.044;9.006;2022-07-29T07:51:32;3.97;;;2.22;;
16272;SDS011;8244;50.044;9.006;2022-07-29T07:56:33;5.78;;;2.30;;
16272;SDS011;8244;50.044;9.006;2022-07-29T08:01:35;4.60;;;2.28;;
16272;SDS011;8244;50.044;9.006;2022-07-29T08:06:38;6.38;;;2.53;;
16272;SDS011;8244;50.044;9.006;2022-07-29T08:11:40;5.72;;;2.17;;
16272;SDS011;8244;50.044;9.006;2022-07-29T08:16:42;5.80;;;2.30;;
16272;SDS011;8244;50.044;9.006;2022-07-29T08:21:45;4.35;;;2.10;;
16272;SDS011;8244;50.044;9.006;2022-07-29T08:26:47;5.38;;;2.00;;
16272;SDS011;8244;50.044;9.006;2022-07-29T08:31:48;5.63;;;2.10;;
16272;SDS011;8244;50.044;9.006;2022-07-29T08:36:51;5.43;;;2.30;;
16272;SDS011;8244;50.044;9.006;2022-07-29T08:41:53;5.07;;;2.20;;
16272;SDS011;8244;50.044;9.006;2022-07-29T08:46:55;9.63;;;2.38;;
16272;SDS011;8244;50.044;9.006;2022-07-29T08:51:58;6.63;;;2.28;;
16272;SDS011;8244;50.044;9.006;2022-07-29T08:57:02;4.68;;;2.35;;
16272;SDS011;8244;50.044;9.006;2022-07-29T09:02:04;4.72;;;2.00;;
16272;SDS011;8244;50.044;9.006;2022-07-29T09:07:15;8.05;;;2.10;;
16272;SDS011;8244;50.044;9.006;2022-07-29T09:12:17;5.18;;;2.10;;
16272;SDS011;8244;50.044;9.006;2022-07-29T09:22:44;4.50;;;2.03;;
16272;SDS011;8244;50.044;9.006;2022-07-29T09:27:49;6.07;;;2.13;;
16272;SDS011;8244;50.044;9.006;2022-07-29T09:32:56;3.47;;;2.00;;
16272;SDS011;8244;50.044;9.006;2022-07-29T09:38:10;7.13;;;2.35;;
16272;SDS011;8244;50.044;9.006;2022-07-29T09:43:12;4.97;;;2.50;;
16272;SDS011;8244;50.044;9.006;2022-07-29T09:48:15;5.15;;;2.25;;
16272;SDS011;8244;50.044;9.006;2022-07-29T09:53:32;5.57;;;2.55;;
16272;SDS011;8244;50.044;9.006;2022-07-29T09:58:37;3.92;;;2.28;;
16272;SDS011;8244;50.044;9.006;2022-07-29T10:03:49;6.65;;;2.05;;
16272;SDS011;8244;50.044;9.006;2022-07-29T10:08:53;4.70;;;2.20;;
16272;SDS011;8244;50.044;9.006;2022-07-29T10:13:54;4.72;;;2.25;;
16272;SDS011;8244;50.044;9.006;2022-07-29T10:18:56;4.05;;;2.25;;
16272;SDS011;8244;50.044;9.006;2022-07-29T10:24:00;6.20;;;2.38;;
16272;SDS011;8244;50.044;9.006;2022-07-29T10:29:02;5.32;;;2.00;;
16272;SDS011;8244;50.044;9.006;2022-07-29T10:34:04;4.25;;;2.08;;
16272;SDS011;8244;50.044;9.006;2022-07-29T10:39:19;3.75;;;2.00;;
16272;SDS011;8244;50.044;9.006;2022-07-29T10:44:34;2.35;;;1.90;;
16272;SDS011;8244;50.044;9.006;2022-07-29T10:49:36;3.65;;;2.05;;
16272;SDS011;8244;50.044;9.006;2022-07-29T10:54:49;4.30;;;1.90;;
16272;SDS011;8244;50.044;9.006;2022-07-29T11:05:29;5.15;;;2.10;;
16272;SDS011;8244;50.044;9.006;2022-07-29T11:10:53;2.88;;;1.88;;
16272;SDS011;8244;50.044;9.006;2022-07-29T11:16:57;4.13;;;2.03;;
16272;SDS011;8244;50.044;9.006;2022-07-29T11:22:02;4.63;;;1.92;;
16272;SDS011;8244;50.044;9.006;2022-07-29T11:27:11;7.78;;;2.17;;
16272;SDS011;8244;50.044;9.006;2022-07-29T11:32:14;3.90;;;1.85;;
16272;SDS011;8244;50.044;9.006;2022-07-29T11:37:20;2.97;;;1.92;;
16272;SDS011;8244;50.044;9.006;2022-07-29T11:42:45;4.40;;;1.92;;
16272;SDS011;8244;50.044;9.006;2022-07-29T11:47:49;3.17;;;2.00;;
16272;SDS011;8244;50.044;9.006;2022-07-29T11:52:54;7.20;;;2.38;;
16272;SDS011;8244;50.044;9.006;2022-07-29T11:57:58;4.97;;;2.20;;
16272;SDS011;8244;50.044;9.006;2022-07-29T12:03:02;5.15;;;2.22;;
16272;SDS011;8244;50.044;9.006;2022-07-29T12:08:08;4.55;;;2.15;;
16272;SDS011;8244;50.044;9.006;2022-07-29T12:13:14;3.17;;;2.13;;
16272;SDS011;8244;50.044;9.006;2022-07-29T12:18:17;3.75;;;1.92;;
16272;SDS011;8244;50.044;9.006;2022-07-29T12:23:20;3.72;;;2.25;;
16272;SDS011;8244;50.044;9.006;2022-07-29T12:28:23;6.25;;;2.25;;
16272;SDS011;8244;50.044;9.006;2022-07-29T12:33:25;3.78;;;2.17;;
16272;SDS011;8244;50.044;9.006;2022-07-29T12:38:29;3.72;;;2.20;;
16272;SDS011;8244;50.044;9.006;2022-07-29T12:43:32;2.70;;;1.88;;
16272;SDS011;8244;50.044;9.006;2022-07-29T12:48:35;5.90;;;2.05;;
16272;SDS011;8244;50.044;9.006;2022-07-29T12:53:38;4.10;;;2.28;;
16272;SDS011;8244;50.044;9.006;2022-07-29T12:58:41;3.67;;;2.35;;
16272;SDS011;8244;50.044;9.006;2022-07-29T13:03:45;5.43;;;2.30;;
16272;SDS011;8244;50.044;9.006;2022-07-29T13:08:58;3.80;;;2.00;;
16272;SDS011;8244;50.044;9.006;2022-07-29T13:14:02;5.25;;;2.20;;
16272;SDS011;8244;50.044;9.006;2022-07-29T13:19:08;3.65;;;2.10;;
16272;SDS011;8244;50.044;9.006;2022-07-29T13:24:11;3.80;;;2.75;;
16272;SDS011;8244;50.044;9.006;2022-07-29T13:29:14;5.38;;;2.10;;
16272;SDS011;8244;50.044;9.006;2022-07-29T13:34:16;3.05;;;1.85;;
16272;SDS011;8244;50.044;9.006;2022-07-29T13:39:19;3.53;;;1.90;;
16272;SDS011;8244;50.044;9.006;2022-07-29T13:44:22;4.75;;;2.10;;
16272;SDS011;8244;50.044;9.006;2022-07-29T13:49:24;5.50;;;2.40;;
16272;SDS011;8244;50.044;9.006;2022-07-29T13:54:26;3.45;;;2.35;;
16272;SDS011;8244;50.044;9.006;2022-07-29T13:59:29;6.07;;;2.47;;
16272;SDS011;8244;50.044;9.006;2022-07-29T14:04:31;5.45;;;2.50;;
16272;SDS011;8244;50.044;9.006;2022-07-29T14:09:33;5.18;;;2.40;;
16272;SDS011;8244;50.044;9.006;2022-07-29T14:14:36;5.63;;;2.88;;
16272;SDS011;8244;50.044;9.006;2022-07-29T14:19:38;4.72;;;2.40;;
16272;SDS011;8244;50.044;9.006;2022-07-29T14:24:40;6.10;;;2.60;;
16272;SDS011;8244;50.044;9.006;2022-07-29T14:29:43;3.28;;;2.35;;
16272;SDS011;8244;50.044;9.006;2022-07-29T14:34:45;4.93;;;2.65;;
16272;SDS011;8244;50.044;9.006;2022-07-29T14:39:46;4.18;;;2.60;;
16272;SDS011;8244;50.044;9.006;2022-07-29T14:44:49;5.07;;;2.50;;
16272;SDS011;8244;50.044;9.006;2022-07-29T14:49:51;3.60;;;2.17;;
16272;SDS011;8244;50.044;9.006;2022-07-29T14:54:53;4.25;;;2.40;;
16272;SDS011;8244;50.044;9.006;2022-07-29T14:59:56;2.78;;;2.28;;
16272;SDS011;8244;50.044;9.006;2022-07-29T15:04:58;7.30;;;2.88;;
16272;SDS011;8244;50.044;9.006;2022-07-29T15:10:00;8.65;;;3.20;;
16272;SDS011;8244;50.044;9.006;2022-07-29T15:15:04;6.13;;;2.90;;
16272;SDS011;8244;50.044;9.006;2022-07-29T15:20:06;8.82;;;4.18;;
16272;SDS011;8244;50.044;9.006;2022-07-29T15:25:08;7.60;;;3.40;;
16272;SDS011;8244;50.044;9.006;2022-07-29T15:30:12;6.70;;;3.40;;
16272;SDS011;8244;50.044;9.006;2022-07-29T15:35:16;5.97;;;3.33;;
16272;SDS011;8244;50.044;9.006;2022-07-29T15:40:18;5.65;;;3.58;;
16272;SDS011;8244;50.044;9.006;2022-07-29T15:45:21;8.77;;;3.40;;
16272;SDS011;8244;50.044;9.006;2022-07-29T15:50:23;6.13;;;3.38;;
16272;SDS011;8244;50.044;9.006;2022-07-29T15:55:25;4.97;;;3.20;;
16272;SDS011;8244;50.044;9.006;2022-07-29T16:00:28;7.05;;;2.95;;
16272;SDS011;8244;50.044;9.006;2022-07-29T16:05:30;7.07;;;2.90;;
16272;SDS011;8244;50.044;9.006;2022-07-29T16:10:32;6.75;;;3.03;;
16272;SDS011;8244;50.044;9.006;2022-07-29T16:15:35;3.88;;;2.67;;
16272;SDS011;8244;50.044;9.006;2022-07-29T16:20:37;4.45;;;2.65;;
16272;SDS011;8244;50.044;9.006;2022-07-29T16:25:39;5.63;;;2.70;;
16272;SDS011;8244;50.044;9.006;2022-07-29T16:30:43;6.50;;;2.90;;
16272;SDS011;8244;50.044;9.006;2022-07-29T16:35:44;6.45;;;3.35;;
16272;SDS011;8244;50.044;9.006;2022-07-29T16:40:46;11.25;;;4.53;;
16272;SDS011;8244;50.044;9.006;2022-07-29T16:45:49;4.60;;;3.20;;
16272;SDS011;8244;50.044;9.006;2022-07-29T16:50:51;4.22;;;2.90;;
16272;SDS011;8244;50.044;9.006;2022-07-29T16:55:53;6.50;;;3.30;;
16272;SDS011;8244;50.044;9.006;2022-07-29T17:00:56;5.53;;;2.90;;
16272;SDS011;8244;50.044;9.006;2022-07-29T17:05:57;5.10;;;2.67;;
16272;SDS011;8244;50.044;9.006;2022-07-29T17:10:59;4.70;;;2.70;;
16272;SDS011;8244;50.044;9.006;2022-07-29T17:16:02;5.20;;;2.75;;
16272;SDS011;8244;50.044;9.006;2022-07-29T17:21:04;4.53;;;2.55;;
16272;SDS011;8244;50.044;9.006;2022-07-29T17:26:06;3.88;;;2.38;;
16272;SDS011;8244;50.044;9.006;2022-07-29T17:31:10;3.45;;;2.30;;
16272;SDS011;8244;50.044;9.006;2022-07-29T17:36:12;2.88;;;2.15;;
16272;SDS011;8244;50.044;9.006;2022-07-29T17:41:26;4.30;;;2.53;;
16272;SDS011;8244;50.044;9.006;2022-07-29T17:46:29;3.63;;;2.53;;
16272;SDS011;8244;50.044;9.006;2022-07-29T17:51:31;5.15;;;3.08;;
16272;SDS011;8244;50.044;9.006;2022-07-29T17:56:33;6.28;;;3.00;;
16272;SDS011;8244;50.044;9.006;2022-07-29T18:01:36;4.53;;;2.90;;
16272;SDS011;8244;50.044;9.006;2022-07-29T18:06:40;4.47;;;3.10;;
16272;SDS011;8244;50.044;9.006;2022-07-29T18:11:42;5.28;;;2.90;;
16272;SDS011;8244;50.044;9.006;2022-07-29T18:16:45;5.35;;;3.22;;
16272;SDS011;8244;50.044;9.006;2022-07-29T18:21:47;3.92;;;2.90;;
16272;SDS011;8244;50.044;9.006;2022-07-29T18:26:48;5.80;;;3.45;;
16272;SDS011;8244;50.044;9.006;2022-07-29T18:31:51;4.97;;;3.30;;
16272;SDS011;8244;50.044;9.006;2022-07-29T18:36:53;5.82;;;3.40;;
16272;SDS011;8244;50.044;9.006;2022-07-29T18:41:55;6.18;;;3.70;;
16272;SDS011;8244;50.044;9.006;2022-07-29T18:46:58;5.88;;;3.40;;
16272;SDS011;8244;50.044;9.006;2022-07-29T18:52:00;9.35;;;3.10;;
16272;SDS011;8244;50.044;9.006;2022-07-29T18:57:02;7.72;;;2.80;;
16272;SDS011;8244;50.044;9.006;2022-07-29T19:02:05;5.72;;;2.88;;
16272;SDS011;8244;50.044;9.006;2022-07-29T19:07:07;4.55;;;2.70;;
16272;SDS011;8244;50.044;9.006;2022-07-29T19:12:09;5.97;;;2.97;;
16272;SDS011;8244;50.044;9.006;2022-07-29T19:17:12;8.82;;;3.00;;
16272;SDS011;8244;50.044;9.006;2022-07-29T19:22:14;6.90;;;3.30;;
16272;SDS011;8244;50.044;9.006;2022-07-29T19:27:15;5.30;;;3.17;;
16272;SDS011;8244;50.044;9.006;2022-07-29T19:32:20;6.78;;;3.20;;
16272;SDS011;8244;50.044;9.006;2022-07-29T19:37:22;7.35;;;3.42;;
16272;SDS011;8244;50.044;9.006;2022-07-29T19:42:24;7.30;;;3.10;;
16272;SDS011;8244;50.044;9.006;2022-07-29T19:47:27;8.32;;;3.53;;
16272;SDS011;8244;50.044;9.006;2022-07-29T19:52:29;8.20;;;3.58;;
16272;SDS011;8244;50.044;9.006;2022-07-29T19:57:30;6.90;;;3.45;;
16272;SDS011;8244;50.044;9.006;2022-07-29T20:02:33;6.90;;;3.42;;
16272;SDS011;8244;50.044;9.006;2022-07-29T20:07:35;5.72;;;3.65;;
16272;SDS011;8244;50.044;9.006;2022-07-29T20:12:38;6.50;;;3.67;;
16272;SDS011;8244;50.044;9.006;2022-07-29T20:17:42;8.18;;;3.50;;
16272;SDS011;8244;50.044;9.006;2022-07-29T20:22:44;6.45;;;4.10;;
16272;SDS011;8244;50.044;9.006;2022-07-29T20:27:46;7.05;;;4.70;;
16272;SDS011;8244;50.044;9.006;2022-07-29T20:32:52;8.15;;;5.10;;
16272;SDS011;8244;50.044;9.006;2022-07-29T20:37:54;6.65;;;4.20;;
16272;SDS011;8244;50.044;9.006;2022-07-29T20:42:55;6.20;;;4.15;;
16272;SDS011;8244;50.044;9.006;2022-07-29T20:47:58;5.93;;;4.40;;
16272;SDS011;8244;50.044;9.006;2022-07-29T20:53:00;7.95;;;4.53;;
16272;SDS011;8244;50.044;9.006;2022-07-29T20:58:02;6.78;;;4.32;;
16272;SDS011;8244;50.044;9.006;2022-07-29T21:03:05;7.60;;;4.47;;
16272;SDS011;8244;50.044;9.006;2022-07-29T21:08:07;5.50;;;3.78;;
16272;SDS011;8244;50.044;9.006;2022-07-29T21:13:09;8.73;;;4.47;;
16272;SDS011;8244;50.044;9.006;2022-07-29T21:18:14;6.72;;;4.07;;
16272;SDS011;8244;50.044;9.006;2022-07-29T21:23:27;9.00;;;4.45;;
16272;SDS011;8244;50.044;9.006;2022-07-29T21:28:29;6.70;;;4.53;;
16272;SDS011;8244;50.044;9.006;2022-07-29T21:33:37;7.20;;;4.82;;
16272;SDS011;8244;50.044;9.006;2022-07-29T21:38:40;7.47;;;4.57;;
16272;SDS011;8244;50.044;9.006;2022-07-29T21:43:42;7.13;;;4.55;;
16272;SDS011;8244;50.044;9.006;2022-07-29T21:48:46;7.63;;;4.68;;
16272;SDS011;8244;50.044;9.006;2022-07-29T21:53:48;7.28;;;4.35;;
16272;SDS011;8244;50.044;9.006;2022-07-29T21:58:49;7.68;;;4.70;;
16272;SDS011;8244;50.044;9.006;2022-07-29T22:03:53;6.18;;;3.70;;
16272;SDS011;8244;50.044;9.006;2022-07-29T22:08:54;6.25;;;4.10;;
16272;SDS011;8244;50.044;9.006;2022-07-29T22:13:56;6.82;;;4.13;;
16272;SDS011;8244;50.044;9.006;2022-07-29T22:18:59;6.63;;;4.10;;
16272;SDS011;8244;50.044;9.006;2022-07-29T22:24:02;6.78;;;4.50;;
16272;SDS011;8244;50.044;9.006;2022-07-29T22:29:04;8.18;;;5.30;;
16272;SDS011;8244;50.044;9.006;2022-07-29T22:34:07;10.98;;;5.40;;
16272;SDS011;8244;50.044;9.006;2022-07-29T22:39:12;8.05;;;5.10;;
16272;SDS011;8244;50.044;9.006;2022-07-29T22:44:13;8.10;;;5.15;;
16272;SDS011;8244;50.044;9.006;2022-07-29T22:49:16;6.33;;;4.50;;
16272;SDS011;8244;50.044;9.006;2022-07-29T22:54:18;6.97;;;5.00;;
16272;SDS011;8244;50.044;9.006;2022-07-29T22:59:20;7.38;;;4.95;;
16272;SDS011;8244;50.044;9.006;2022-07-29T23:04:23;8.48;;;5.30;;
16272;SDS011;8244;50.044;9.006;2022-07-29T23:09:25;6.22;;;5.07;;
16272;SDS011;8244;50.044;9.006;2022-07-29T23:14:26;7.15;;;4.90;;
16272;SDS011;8244;50.044;9.006;2022-07-29T23:19:29;6.55;;;4.22;;
16272;SDS011;8244;50.044;9.006;2022-07-29T23:24:32;5.47;;;4.32;;
16272;SDS011;8244;50.044;9.006;2022-07-29T23:29:34;6.10;;;4.72;;
16272;SDS011;8244;50.044;9.006;2022-07-29T23:34:37;7.22;;;4.45;;
16272;SDS011;8244;50.044;9.006;2022-07-29T23:39:39;6.82;;;4.43;;
16272;SDS011;8244;50.044;9.006;2022-07-29T23:44:40;7.43;;;4.90;;
16272;SDS011;8244;50.044;9.006;2022-07-29T23:49:44;7.72;;;5.65;;
16272;SDS011;8244;50.044;9.006;2022-07-29T23:54:48;7.70;;;5.57;;
16272;SDS011;8244;50.044;9.006;2022-07-29T23:59:50;9.27;;;5.57;;
